Time;durP1;ratioP1;P1;durP2;ratioP2;P2;SDS_P1;SDS_P2;PMS_P1;PMS_P2;Temp;Humidity;BMP_temperature;BMP_pressure;BME280_temperature;BME280_humidity;BME280_pressure;Samples;Min_cycle;Max_cycle;Signal;HPM_P1;HPM_P2
2023/05/01 00:02:21;;;;;;;4.25;3.08;;;12.20;60.80;;;;;;5072437;28;20024;-77
2023/05/01 00:04:46;;;;;;;4.68;3.58;;;12.20;60.60;;;;;;5072259;28;20119;-76
2023/05/01 00:07:12;;;;;;;6.95;4.70;;;12.20;60.50;;;;;;5072267;28;20070;-75
2023/05/01 00:09:38;;;;;;;5.18;3.63;;;12.30;60.70;;;;;;5072197;28;20465;-76
2023/05/01 00:12:03;;;;;;;4.03;3.63;;;12.20;60.80;;;;;;5072512;28;20025;-77
2023/05/01 00:14:29;;;;;;;3.85;3.50;;;12.20;60.40;;;;;;5072417;28;20023;-76
2023/05/01 00:16:55;;;;;;;4.85;3.40;;;12.20;59.80;;;;;;5072290;28;20082;-75
2023/05/01 00:19:20;;;;;;;3.72;3.00;;;12.20;59.70;;;;;;5072250;28;20365;-75
2023/05/01 00:21:47;;;;;;;4.70;3.65;;;12.20;60.40;;;;;;5054228;28;20112;-76
2023/05/01 00:24:14;;;;;;;3.85;3.45;;;12.30;61.20;;;;;;5072258;28;20467;-76
2023/05/01 00:26:39;;;;;;;5.03;4.18;;;12.20;61.70;;;;;;5072282;28;20063;-76
2023/05/01 00:29:06;;;;;;;4.35;3.72;;;12.30;62.30;;;;;;5072138;28;20099;-76
2023/05/01 00:31:31;;;;;;;6.32;4.78;;;12.20;62.50;;;;;;5072128;28;20481;-76
2023/05/01 00:33:57;;;;;;;5.95;4.95;;;12.20;62.70;;;;;;5072227;28;20056;-76
2023/05/01 00:36:22;;;;;;;6.30;4.65;;;12.10;63.30;;;;;;5074977;28;20472;-76
2023/05/01 00:38:48;;;;;;;6.20;4.63;;;12.10;63.50;;;;;;5075692;28;20354;-76
2023/05/01 00:41:14;;;;;;;5.65;5.05;;;12.00;63.50;;;;;;5075647;28;20376;-76
2023/05/01 00:43:39;;;;;;;5.32;4.72;;;12.00;63.80;;;;;;5075425;28;20025;-79
2023/05/01 00:46:06;;;;;;;6.60;4.97;;;12.00;64.30;;;;;;5075491;28;20566;-75
2023/05/01 00:48:31;;;;;;;6.85;4.50;;;11.90;64.50;;;;;;5075509;28;20112;-76
2023/05/01 00:50:59;;;;;;;4.95;4.45;;;11.90;64.70;;;;;;5057487;28;20123;-75
2023/05/01 00:53:27;;;;;;;4.82;3.78;;;11.90;65.10;;;;;;5075367;28;20016;-75
2023/05/01 00:55:55;;;;;;;5.40;4.38;;;11.90;65.00;;;;;;5075430;28;20095;-76
2023/05/01 00:58:20;;;;;;;5.47;3.70;;;11.90;64.80;;;;;;5075307;28;20369;-76
2023/05/01 01:00:48;;;;;;;5.25;4.30;;;11.90;64.70;;;;;;5075294;28;20036;-76
2023/05/01 01:03:13;;;;;;;5.25;4.35;;;12.00;64.70;;;;;;5075223;28;20020;-76
2023/05/01 01:05:43;;;;;;;4.93;4.43;;;12.00;64.80;;;;;;5075100;28;20412;-74
2023/05/01 01:08:29;;;;;;;4.93;3.83;;;12.00;64.90;;;;;;5075073;28;20025;-75
2023/05/01 01:11:09;;;;;;;4.80;4.30;;;12.00;65.10;;;;;;5075102;28;20028;-74
2023/05/01 01:13:45;;;;;;;4.78;3.97;;;12.00;65.20;;;;;;5074983;28;20027;-75
2023/05/01 01:16:45;;;;;;;5.18;4.10;;;12.00;65.00;;;;;;5075055;28;20460;-75
2023/05/01 01:19:24;;;;;;;7.47;4.40;;;12.00;64.50;;;;;;5075002;28;20047;-76
2023/05/01 01:21:57;;;;;;;7.57;4.57;;;12.00;64.60;;;;;;5074695;28;20040;-75
2023/05/01 01:24:58;;;;;;;5.47;4.50;;;12.00;64.60;;;;;;5074804;28;20068;-74
2023/05/01 01:27:48;;;;;;;5.95;4.70;;;12.00;64.80;;;;;;5074806;28;20094;-74
2023/05/01 01:30:37;;;;;;;5.70;4.22;;;11.90;65.20;;;;;;5074622;28;20426;-76
2023/05/01 01:33:11;;;;;;;5.28;4.68;;;11.80;65.50;;;;;;5074442;28;20021;-76
2023/05/01 01:35:42;;;;;;;4.57;4.18;;;11.80;65.60;;;;;;5074445;28;20017;-75
2023/05/01 01:38:22;;;;;;;5.53;4.10;;;11.90;65.80;;;;;;5074481;28;20133;-76
2023/05/01 01:41:05;;;;;;;5.80;4.53;;;11.80;65.70;;;;;;5074575;28;20142;-76
2023/05/01 01:43:39;;;;;;;5.60;4.68;;;11.90;65.80;;;;;;5074399;28;20138;-76
2023/05/01 01:46:07;;;;;;;5.28;4.70;;;11.80;65.60;;;;;;5073789;28;20031;-75
2023/05/01 01:48:35;;;;;;;9.02;4.93;;;11.80;65.70;;;;;;5074164;28;20107;-75
2023/05/01 01:51:07;;;;;;;5.57;4.38;;;11.90;65.80;;;;;;5074290;28;20113;-75
2023/05/01 01:53:35;;;;;;;4.70;4.20;;;11.80;65.80;;;;;;5074189;28;20170;-73
2023/05/01 01:56:06;;;;;;;5.68;4.80;;;11.80;65.80;;;;;;5074227;28;20107;-74
2023/05/01 01:58:33;;;;;;;5.65;5.03;;;11.90;66.00;;;;;;5074268;28;20050;-74
2023/05/01 02:01:00;;;;;;;6.88;5.13;;;11.90;67.10;;;;;;5074100;28;20035;-74
2023/05/01 02:03:26;;;;;;;5.05;4.40;;;11.90;66.30;;;;;;5073928;28;20024;-74
2023/05/01 02:05:55;;;;;;;5.63;4.28;;;11.90;66.30;;;;;;5074006;28;20109;-74
2023/05/01 02:08:22;;;;;;;5.03;4.50;;;11.80;66.30;;;;;;5074164;28;20020;-73
2023/05/01 02:10:49;;;;;;;8.07;4.95;;;11.80;66.50;;;;;;5073530;28;20393;-73
2023/05/01 02:13:16;;;;;;;4.75;4.28;;;11.90;66.90;;;;;;5073888;28;20415;-73
2023/05/01 02:15:43;;;;;;;6.93;4.57;;;11.90;67.20;;;;;;5073785;28;20107;-74
2023/05/01 02:18:10;;;;;;;5.82;4.03;;;11.90;67.40;;;;;;5073713;28;20099;-73
2023/05/01 02:20:36;;;;;;;5.97;4.75;;;11.90;67.60;;;;;;5073683;28;20020;-73
2023/05/01 02:23:04;;;;;;;8.30;4.28;;;12.00;67.50;;;;;;5073591;28;20025;-74
2023/05/01 02:25:33;;;;;;;6.00;4.82;;;11.90;67.70;;;;;;5055618;28;20040;-73
2023/05/01 02:28:02;;;;;;;5.60;4.75;;;12.00;67.60;;;;;;5073488;28;20021;-74
2023/05/01 02:30:28;;;;;;;7.70;5.03;;;12.00;67.50;;;;;;5073333;28;20029;-74
2023/05/01 02:32:54;;;;;;;5.85;4.50;;;12.00;67.50;;;;;;5073491;28;20062;-74
2023/05/01 02:35:20;;;;;;;6.13;4.60;;;12.00;67.60;;;;;;5073341;28;20067;-74
2023/05/01 02:37:46;;;;;;;4.95;4.13;;;12.00;68.00;;;;;;5073251;28;20061;-73
2023/05/01 02:40:13;;;;;;;5.75;4.70;;;12.00;68.10;;;;;;5073303;28;20032;-74
2023/05/01 02:42:43;;;;;;;7.47;5.32;;;12.00;68.60;;;;;;5073334;28;20020;-75
2023/05/01 02:45:14;;;;;;;8.27;4.97;;;12.00;68.70;;;;;;5073154;28;20032;-73
2023/05/01 02:47:42;;;;;;;6.50;4.93;;;11.90;68.90;;;;;;5073239;28;20502;-73
2023/05/01 02:50:08;;;;;;;5.50;4.93;;;11.90;69.20;;;;;;5055294;28;20024;-77
2023/05/01 02:52:35;;;;;;;6.20;4.50;;;11.80;69.50;;;;;;5073242;28;20033;-73
2023/05/01 02:55:02;;;;;;;4.93;4.20;;;11.80;70.00;;;;;;5073107;28;20477;-76
2023/05/01 02:57:28;;;;;;;6.28;5.63;;;11.70;70.40;;;;;;5072899;28;20025;-75
2023/05/01 02:59:53;;;;;;;5.55;4.75;;;11.70;70.60;;;;;;5072989;28;20020;-75
2023/05/01 03:02:19;;;;;;;6.65;5.35;;;11.60;70.70;;;;;;5073037;28;20024;-74
2023/05/01 03:04:44;;;;;;;5.78;5.15;;;11.60;71.10;;;;;;5072947;28;20040;-74
2023/05/01 03:07:10;;;;;;;5.75;5.15;;;11.50;71.60;;;;;;5054802;28;20032;-74
2023/05/01 03:09:36;;;;;;;6.38;5.57;;;11.50;71.80;;;;;;5073136;28;20021;-74
2023/05/01 03:12:01;;;;;;;7.07;5.30;;;11.50;71.90;;;;;;5073169;28;20024;-74
2023/05/01 03:14:27;;;;;;;6.10;5.45;;;11.40;71.90;;;;;;5073036;28;20028;-74
2023/05/01 03:16:53;;;;;;;6.88;5.82;;;11.50;71.90;;;;;;5073248;28;20028;-74
2023/05/01 03:19:19;;;;;;;6.70;4.97;;;11.50;72.00;;;;;;5073275;28;20025;-75
2023/05/01 03:21:44;;;;;;;5.20;4.55;;;11.50;72.10;;;;;;5073313;28;20023;-75
2023/05/01 03:24:10;;;;;;;6.75;5.50;;;11.50;72.20;;;;;;5073161;28;20040;-74
2023/05/01 03:26:36;;;;;;;7.05;5.13;;;11.50;72.20;;;;;;5073189;28;20025;-74
2023/05/01 03:29:01;;;;;;;7.65;5.32;;;11.50;72.10;;;;;;5073371;28;20048;-74
2023/05/01 03:31:28;;;;;;;5.03;4.53;;;11.50;72.30;;;;;;5073121;28;20029;-74
2023/05/01 03:33:53;;;;;;;6.40;5.18;;;11.40;72.40;;;;;;5073228;28;20028;-74
2023/05/01 03:36:20;;;;;;;5.80;4.57;;;11.40;72.60;;;;;;5073072;28;20033;-74
2023/05/01 03:38:46;;;;;;;5.32;4.60;;;11.40;72.80;;;;;;5073436;28;20074;-73
2023/05/01 03:41:11;;;;;;;8.73;5.03;;;11.40;73.10;;;;;;5055186;28;20024;-74
2023/05/01 03:43:38;;;;;;;7.15;4.93;;;11.40;73.40;;;;;;5072987;28;20025;-74
2023/05/01 03:46:03;;;;;;;5.70;4.45;;;11.40;73.60;;;;;;5073616;28;20179;-73
2023/05/01 03:48:29;;;;;;;5.47;4.57;;;11.40;73.70;;;;;;5073706;28;20449;-73
2023/05/01 03:50:55;;;;;;;6.97;5.03;;;11.40;74.20;;;;;;5077739;28;20025;-73
2023/05/01 03:53:21;;;;;;;5.30;4.47;;;11.40;74.40;;;;;;5078479;28;20020;-74
2023/05/01 03:55:47;;;;;;;5.47;4.63;;;11.40;74.30;;;;;;5078691;28;20024;-74
2023/05/01 03:58:12;;;;;;;5.32;4.72;;;11.30;74.90;;;;;;5060753;28;20025;-73
2023/05/01 04:00:38;;;;;;;6.75;4.80;;;11.30;74.80;;;;;;5076531;28;20031;-76
2023/05/01 04:03:04;;;;;;;5.45;4.15;;;11.30;74.80;;;;;;5076725;28;20036;-75
2023/05/01 04:05:30;;;;;;;6.10;4.32;;;11.30;75.00;;;;;;5075603;28;20040;-74
2023/05/01 04:07:56;;;;;;;7.53;4.68;;;11.20;74.80;;;;;;5073782;28;20020;-75
2023/05/01 04:10:22;;;;;;;6.68;4.47;;;11.20;74.80;;;;;;5056101;28;20032;-74
2023/05/01 04:12:47;;;;;;;7.72;4.47;;;11.30;75.10;;;;;;5076212;28;20201;-74
2023/05/01 04:15:13;;;;;;;5.60;4.53;;;11.30;75.30;;;;;;5076161;28;20024;-74
2023/05/01 04:17:39;;;;;;;5.68;4.88;;;11.20;75.40;;;;;;5076087;28;20025;-75
2023/05/01 04:20:05;;;;;;;6.20;4.95;;;11.20;75.50;;;;;;5075975;28;20017;-75
2023/05/01 04:22:31;;;;;;;6.22;5.60;;;11.20;75.60;;;;;;5075931;28;20063;-74
2023/05/01 04:24:57;;;;;;;5.72;5.18;;;11.20;75.90;;;;;;5075843;28;20135;-75
2023/05/01 04:27:22;;;;;;;9.10;5.15;;;11.20;76.10;;;;;;5075955;28;20103;-74
2023/05/01 04:29:48;;;;;;;6.63;5.45;;;11.20;76.30;;;;;;5075991;28;20052;-74
2023/05/01 04:32:14;;;;;;;6.43;5.13;;;11.20;76.50;;;;;;5075721;28;20020;-74
2023/05/01 04:34:39;;;;;;;6.18;5.57;;;11.10;76.50;;;;;;5075867;28;20503;-74
2023/05/01 04:37:07;;;;;;;8.02;5.50;;;11.10;76.70;;;;;;5075363;28;20044;-74
2023/05/01 04:39:33;;;;;;;5.93;5.32;;;11.10;76.50;;;;;;5075766;28;20020;-74
2023/05/01 04:41:59;;;;;;;8.35;5.68;;;11.10;76.70;;;;;;5075648;28;20028;-73
2023/05/01 04:44:24;;;;;;;7.30;5.35;;;11.10;77.00;;;;;;5075622;28;20060;-73
2023/05/01 04:46:50;;;;;;;6.80;5.25;;;11.10;77.10;;;;;;5075680;28;20067;-74
2023/05/01 04:49:15;;;;;;;5.80;4.55;;;11.10;77.10;;;;;;5075749;28;20539;-74
2023/05/01 04:51:41;;;;;;;7.13;5.75;;;11.10;77.40;;;;;;5075564;28;20116;-74
2023/05/01 04:54:07;;;;;;;7.50;4.95;;;11.20;77.20;;;;;;5075616;28;20024;-74
2023/05/01 04:56:33;;;;;;;6.03;4.32;;;11.20;77.00;;;;;;5057432;28;20358;-74
2023/05/01 04:58:58;;;;;;;7.50;5.35;;;11.20;77.00;;;;;;5075325;28;20380;-75
2023/05/01 05:01:24;;;;;;;7.70;6.10;;;11.10;76.90;;;;;;5075368;28;20065;-76
2023/05/01 05:03:49;;;;;;;10.57;7.78;;;11.10;76.90;;;;;;5075303;28;20043;-76
2023/05/01 05:06:15;;;;;;;8.85;7.10;;;11.20;77.00;;;;;;5075385;28;20040;-74
2023/05/01 05:08:41;;;;;;;10.23;6.43;;;11.10;76.80;;;;;;5075211;28;20025;-75
2023/05/01 05:11:06;;;;;;;9.13;5.85;;;11.10;76.70;;;;;;5075207;28;20111;-75
2023/05/01 05:13:32;;;;;;;6.15;5.55;;;11.10;76.60;;;;;;5075127;28;20086;-75
2023/05/01 05:15:58;;;;;;;8.27;5.72;;;11.20;77.20;;;;;;5075139;28;20501;-77
2023/05/01 05:18:23;;;;;;;6.70;5.57;;;11.20;76.50;;;;;;5075267;28;20074;-75
2023/05/01 05:20:49;;;;;;;8.40;5.70;;;11.10;76.70;;;;;;5075003;28;20052;-76
2023/05/01 05:23:14;;;;;;;7.43;5.93;;;11.20;76.50;;;;;;5074992;28;20036;-75
2023/05/01 05:25:40;;;;;;;6.07;5.32;;;11.30;76.30;;;;;;5075003;28;20033;-74
2023/05/01 05:28:06;;;;;;;8.02;5.43;;;11.30;76.10;;;;;;5074941;28;20025;-75
2023/05/01 05:30:31;;;;;;;6.03;5.00;;;11.30;76.00;;;;;;5057239;28;20029;-76
2023/05/01 05:32:57;;;;;;;6.22;5.20;;;11.30;75.60;;;;;;5054577;28;20024;-76
2023/05/01 05:35:22;;;;;;;6.35;5.20;;;11.30;75.50;;;;;;5054845;28;20025;-77
2023/05/01 05:37:48;;;;;;;6.10;4.82;;;11.30;75.20;;;;;;5070279;28;20127;-77
2023/05/01 05:40:14;;;;;;;6.50;5.53;;;11.30;75.10;;;;;;5079419;28;20084;-74
2023/05/01 05:42:40;;;;;;;6.30;5.35;;;11.30;76.40;;;;;;5074569;28;20016;-74
2023/05/01 05:45:06;;;;;;;6.63;5.93;;;11.40;75.50;;;;;;5074526;28;20036;-74
2023/05/01 05:47:31;;;;;;;7.72;5.68;;;11.40;75.50;;;;;;5074474;28;20017;-74
2023/05/01 05:49:57;;;;;;;14.32;5.65;;;11.40;75.40;;;;;;5074450;28;20036;-73
2023/05/01 05:52:23;;;;;;;6.32;4.65;;;11.50;75.30;;;;;;5074285;28;20085;-74
2023/05/01 05:54:48;;;;;;;11.18;5.18;;;11.50;75.20;;;;;;5074488;28;20035;-74
2023/05/01 05:57:14;;;;;;;7.30;4.88;;;11.50;74.70;;;;;;5074312;28;20102;-75
2023/05/01 05:59:39;;;;;;;6.03;4.70;;;11.60;74.00;;;;;;5074152;28;20032;-74
2023/05/01 06:02:05;;;;;;;5.72;4.78;;;11.60;74.20;;;;;;5074215;28;20423;-74
2023/05/01 06:04:31;;;;;;;5.13;4.28;;;11.70;74.70;;;;;;5074209;28;20032;-74
2023/05/01 06:06:57;;;;;;;5.10;4.60;;;11.80;74.60;;;;;;5059257;28;20037;-74
2023/05/01 06:09:23;;;;;;;9.88;5.25;;;11.80;74.60;;;;;;5036124;28;20095;-75
2023/05/01 06:11:49;;;;;;;8.45;5.68;;;11.90;74.10;;;;;;5053706;28;20029;-75
2023/05/01 06:14:15;;;;;;;7.18;5.40;;;12.00;73.40;;;;;;5054951;28;20377;-75
2023/05/01 06:16:41;;;;;;;7.47;5.35;;;12.00;72.80;;;;;;5036131;28;20032;-74
2023/05/01 06:19:09;;;;;;;7.55;5.43;;;12.00;72.00;;;;;;5054045;28;20381;-74
2023/05/01 06:21:34;;;;;;;6.32;5.07;;;12.00;71.80;;;;;;5036286;28;20427;-74
2023/05/01 06:24:00;;;;;;;6.13;5.28;;;12.10;72.10;;;;;;5053464;28;20070;-74
2023/05/01 06:26:26;;;;;;;7.07;5.32;;;12.10;72.70;;;;;;5053939;28;20465;-74
2023/05/01 06:28:53;;;;;;;6.50;5.15;;;12.20;73.10;;;;;;5053767;28;20377;-73
2023/05/01 06:31:19;;;;;;;7.40;5.70;;;12.20;73.40;;;;;;5053779;28;20021;-75
2023/05/01 06:33:45;;;;;;;6.05;4.38;;;12.30;74.00;;;;;;5053209;28;20025;-75
2023/05/01 06:36:10;;;;;;;5.03;4.50;;;12.30;73.30;;;;;;5053671;28;20103;-75
2023/05/01 06:38:36;;;;;;;4.70;4.30;;;12.40;73.00;;;;;;5053645;28;20021;-74
2023/05/01 06:41:03;;;;;;;6.47;4.88;;;12.40;72.90;;;;;;5053646;28;20036;-74
2023/05/01 06:43:29;;;;;;;5.90;4.38;;;12.40;72.70;;;;;;5053589;28;20036;-72
2023/05/01 06:45:56;;;;;;;4.90;4.50;;;12.40;72.70;;;;;;5053648;28;20025;-73
2023/05/01 06:48:22;;;;;;;7.35;4.85;;;12.40;72.60;;;;;;5035545;28;20025;-72
2023/05/01 06:50:48;;;;;;;6.53;5.50;;;12.40;72.60;;;;;;5053575;28;20036;-75
2023/05/01 06:53:13;;;;;;;5.90;4.90;;;12.50;72.90;;;;;;5053512;28;20035;-74
2023/05/01 06:55:39;;;;;;;8.05;5.53;;;12.50;73.00;;;;;;5035579;28;20060;-74
2023/05/01 06:58:05;;;;;;;6.25;5.18;;;12.60;73.00;;;;;;5053312;28;20021;-74
2023/05/01 07:00:32;;;;;;;5.45;4.70;;;12.70;73.20;;;;;;5053353;28;20037;-75
2023/05/01 07:02:58;;;;;;;6.25;4.97;;;12.80;73.10;;;;;;5054352;28;20104;-74
2023/05/01 07:05:24;;;;;;;6.43;5.38;;;12.80;73.00;;;;;;5057794;28;20434;-74
2023/05/01 07:07:49;;;;;;;7.25;5.40;;;12.90;73.00;;;;;;5053359;28;20067;-73
2023/05/01 07:10:15;;;;;;;8.27;5.55;;;13.00;72.30;;;;;;5036111;28;20029;-73
2023/05/01 07:12:40;;;;;;;7.95;5.75;;;13.00;72.00;;;;;;5053225;28;20036;-75
2023/05/01 07:15:06;;;;;;;6.75;4.75;;;13.10;70.80;;;;;;5053390;28;20088;-75
2023/05/01 07:17:33;;;;;;;6.35;4.55;;;13.20;70.50;;;;;;5053008;28;20491;-74
2023/05/01 07:19:59;;;;;;;5.93;4.60;;;13.20;70.00;;;;;;5053019;28;20485;-73
2023/05/01 07:22:25;;;;;;;5.25;4.72;;;13.30;69.40;;;;;;5052867;28;20108;-73
2023/05/01 07:24:51;;;;;;;5.70;4.75;;;13.40;68.70;;;;;;5052818;28;20505;-73
2023/05/01 07:27:16;;;;;;;9.30;6.18;;;13.50;68.20;;;;;;5052973;28;20106;-72
2023/05/01 07:29:43;;;;;;;11.55;6.97;;;13.50;66.80;;;;;;5052949;28;20031;-74
2023/05/01 07:32:08;;;;;;;8.98;5.85;;;13.60;66.40;;;;;;5052740;28;20057;-73
2023/05/01 07:34:34;;;;;;;7.90;5.15;;;13.70;66.00;;;;;;5052836;28;20057;-73
2023/05/01 07:37:00;;;;;;;7.82;4.78;;;13.70;65.30;;;;;;5052715;28;20057;-73
2023/05/01 07:39:25;;;;;;;8.43;5.55;;;13.80;64.70;;;;;;5052868;28;20079;-73
2023/05/01 07:41:51;;;;;;;7.80;5.82;;;13.90;64.60;;;;;;5052845;28;20033;-73
2023/05/01 07:44:17;;;;;;;24.50;6.80;;;14.10;64.00;;;;;;5052658;28;20032;-75
2023/05/01 07:46:42;;;;;;;15.18;6.10;;;14.30;72.90;;;;;;5056855;28;20025;-72
2023/05/01 07:49:08;;;;;;;10.30;5.30;;;14.60;70.20;;;;;;5056846;28;20517;-73
2023/05/01 07:51:33;;;;;;;9.93;5.72;;;15.00;65.90;;;;;;5038954;28;20029;-75
2023/05/01 07:54:03;;;;;;;8.32;5.20;;;15.20;60.80;;;;;;5056492;28;20380;-73
2023/05/01 07:56:31;;;;;;;9.05;6.07;;;15.10;59.10;;;;;;5056502;28;20063;-76
2023/05/01 07:58:57;;;;;;;12.88;5.38;;;15.30;59.30;;;;;;5056369;28;20033;-74
2023/05/01 08:01:23;;;;;;;10.63;6.28;;;15.30;60.30;;;;;;5056685;28;20021;-74
2023/05/01 08:03:48;;;;;;;8.35;6.20;;;15.40;58.50;;;;;;5056559;28;20029;-72
2023/05/01 08:06:14;;;;;;;7.38;5.40;;;15.40;58.00;;;;;;5056544;28;20032;-73
2023/05/01 08:08:39;;;;;;;7.13;5.00;;;15.30;59.20;;;;;;5056283;28;20017;-72
2023/05/01 08:11:05;;;;;;;7.13;5.40;;;15.50;59.90;;;;;;5056315;28;20416;-72
2023/05/01 08:13:31;;;;;;;8.00;5.22;;;15.70;58.70;;;;;;5056407;28;20013;-74
2023/05/01 08:16:03;;;;;;;6.43;4.97;;;15.70;57.30;;;;;;5056245;28;20025;-75
2023/05/01 08:18:29;;;;;;;8.00;5.38;;;15.40;57.80;;;;;;5056246;28;20025;-74
2023/05/01 08:20:54;;;;;;;8.15;6.22;;;15.10;59.40;;;;;;5056210;28;20060;-74
2023/05/01 08:23:20;;;;;;;6.10;5.50;;;14.60;62.10;;;;;;5056274;28;20060;-74
2023/05/01 08:25:49;;;;;;;11.20;7.40;;;14.40;63.60;;;;;;5059042;28;20029;-74
2023/05/01 08:28:15;;;;;;;8.90;6.35;;;14.00;65.00;;;;;;5063981;28;20017;-74
2023/05/01 08:30:41;;;;;;;7.43;6.47;;;14.00;65.00;;;;;;5061865;28;20071;-74
2023/05/01 08:33:06;;;;;;;6.72;6.00;;;14.00;65.10;;;;;;5056796;28;20385;-74
2023/05/01 08:35:32;;;;;;;7.45;6.28;;;13.90;65.70;;;;;;5056130;28;20025;-74
2023/05/01 08:37:58;;;;;;;6.88;6.18;;;14.00;65.50;;;;;;5056071;28;20106;-74
2023/05/01 08:40:25;;;;;;;6.57;5.82;;;13.90;66.30;;;;;;5055898;28;20459;-74
2023/05/01 08:42:51;;;;;;;7.68;5.53;;;13.80;66.60;;;;;;5055776;28;20029;-74
2023/05/01 08:45:20;;;;;;;8.02;5.85;;;13.90;65.60;;;;;;5055754;28;20108;-75
2023/05/01 08:47:48;;;;;;;6.80;5.55;;;13.90;66.00;;;;;;5052098;28;20363;-73
2023/05/01 08:50:16;;;;;;;7.35;6.13;;;13.90;65.60;;;;;;5043701;28;20025;-73
2023/05/01 08:52:42;;;;;;;8.07;5.75;;;13.80;65.10;;;;;;5055366;28;20029;-74
2023/05/01 08:55:14;;;;;;;8.30;5.93;;;13.70;65.70;;;;;;5055166;28;20025;-74
2023/05/01 08:57:44;;;;;;;8.25;5.88;;;13.60;65.80;;;;;;5055387;28;20090;-73
2023/05/01 09:00:16;;;;;;;7.32;5.40;;;13.60;66.20;;;;;;5055444;28;20021;-74
2023/05/01 09:02:43;;;;;;;7.97;5.78;;;13.40;67.20;;;;;;5037430;28;20052;-77
2023/05/01 09:05:09;;;;;;;7.95;6.20;;;13.40;67.50;;;;;;5051657;28;20034;-75
2023/05/01 09:07:36;;;;;;;6.47;5.30;;;13.40;68.20;;;;;;5040148;28;20065;-74
2023/05/01 09:10:02;;;;;;;7.13;5.70;;;13.40;67.70;;;;;;5045500;28;20029;-75
2023/05/01 09:12:28;;;;;;;5.10;4.40;;;13.50;68.00;;;;;;5054658;28;20023;-77
2023/05/01 09:14:55;;;;;;;6.13;4.30;;;13.60;67.30;;;;;;5055170;28;20036;-75
2023/05/01 09:17:22;;;;;;;5.45;4.65;;;13.60;67.70;;;;;;5055083;28;20469;-73
2023/05/01 09:19:49;;;;;;;6.70;4.00;;;13.60;66.60;;;;;;5054938;28;20397;-73
2023/05/01 09:22:17;;;;;;;4.32;3.75;;;13.50;66.30;;;;;;5054759;28;20492;-73
2023/05/01 09:24:46;;;;;;;4.45;3.58;;;13.40;66.60;;;;;;5055040;28;20074;-73
2023/05/01 09:27:13;;;;;;;4.55;4.13;;;13.40;66.20;;;;;;5053531;28;20442;-73
2023/05/01 09:29:47;;;;;;;4.00;3.60;;;13.40;66.70;;;;;;5054874;28;20104;-72
2023/05/01 09:32:20;;;;;;;7.47;3.10;;;13.40;67.20;;;;;;5054728;28;20025;-73
2023/05/01 09:34:47;;;;;;;6.90;3.85;;;13.40;66.60;;;;;;5054602;28;20032;-73
2023/05/01 09:37:28;;;;;;;4.13;3.20;;;13.30;66.00;;;;;;5065232;28;20082;-74
2023/05/01 09:40:07;;;;;;;3.72;2.90;;;13.30;65.90;;;;;;5067798;28;20027;-74
2023/05/01 09:42:34;;;;;;;3.60;3.00;;;13.20;66.00;;;;;;5065322;28;20078;-74
2023/05/01 09:45:02;;;;;;;4.40;3.00;;;13.20;67.20;;;;;;5070362;28;20033;-73
2023/05/01 09:47:29;;;;;;;4.13;3.67;;;13.20;67.40;;;;;;5070614;28;20854;-75
2023/05/01 09:49:56;;;;;;;5.45;3.42;;;13.20;69.10;;;;;;5071008;28;20035;-74
2023/05/01 09:52:27;;;;;;;4.07;3.33;;;13.20;68.20;;;;;;5078949;28;20066;-74
2023/05/01 09:55:12;;;;;;;6.10;3.78;;;13.40;67.50;;;;;;5074215;28;20040;-73
2023/05/01 09:57:38;;;;;;;7.03;4.10;;;13.60;66.60;;;;;;5074126;28;20016;-73
2023/05/01 10:00:07;;;;;;;3.78;3.25;;;13.50;66.20;;;;;;5074107;28;20024;-74
2023/05/01 10:02:32;;;;;;;4.28;3.88;;;13.60;65.80;;;;;;5074474;28;20350;-74
2023/05/01 10:04:59;;;;;;;5.00;4.10;;;13.60;67.30;;;;;;5074261;28;20039;-75
2023/05/01 10:07:25;;;;;;;5.50;4.30;;;13.60;70.10;;;;;;5073033;28;20024;-73
2023/05/01 10:09:52;;;;;;;6.63;4.38;;;13.70;69.30;;;;;;5074172;28;20033;-73
2023/05/01 10:12:24;;;;;;;7.00;4.88;;;13.90;67.60;;;;;;5074084;28;20021;-72
2023/05/01 10:14:55;;;;;;;5.43;4.82;;;14.10;66.40;;;;;;5048503;28;20055;-75
2023/05/01 10:17:21;;;;;;;5.68;4.78;;;14.00;66.70;;;;;;5073938;28;20042;-73
2023/05/01 10:19:47;;;;;;;5.55;4.68;;;14.00;67.80;;;;;;5073820;28;20028;-73
2023/05/01 10:22:13;;;;;;;4.38;3.97;;;14.20;67.70;;;;;;5073683;28;20442;-73
2023/05/01 10:24:40;;;;;;;4.95;3.67;;;14.30;65.60;;;;;;5073586;28;20040;-73
2023/05/01 10:27:06;;;;;;;3.85;3.45;;;14.50;65.10;;;;;;5073857;28;20024;-73
2023/05/01 10:29:33;;;;;;;4.47;3.88;;;14.70;64.30;;;;;;5069874;28;20024;-73
2023/05/01 10:32:00;;;;;;;4.63;3.88;;;14.80;63.40;;;;;;5066204;28;20012;-74
2023/05/01 10:34:27;;;;;;;5.40;3.75;;;14.90;63.50;;;;;;5063460;28;20028;-76
2023/05/01 10:36:58;;;;;;;6.55;4.10;;;15.10;62.80;;;;;;5065773;28;20033;-73
2023/05/01 10:39:34;;;;;;;4.55;3.97;;;15.20;62.50;;;;;;5054612;28;20052;-73
2023/05/01 10:42:03;;;;;;;;;;;15.40;60.80;;;;;;5063791;28;20025;-73
2023/05/01 10:44:30;;;;;;;4.30;3.90;;;15.40;59.20;;;;;;5067918;28;20074;-74
2023/05/01 10:46:56;;;;;;;4.25;3.85;;;15.40;60.00;;;;;;5064525;28;20028;-75
2023/05/01 10:49:22;;;;;;;8.13;4.57;;;15.30;59.70;;;;;;5065771;28;20031;-73
2023/05/01 10:51:57;;;;;;;6.22;4.38;;;15.40;60.00;;;;;;5065407;28;20027;-75
2023/05/01 10:54:25;;;;;;;5.20;4.05;;;15.50;60.10;;;;;;5049944;28;20036;-75
2023/05/01 10:56:52;;;;;;;6.35;4.20;;;15.70;60.90;;;;;;5052897;28;20025;-74
2023/05/01 10:59:18;;;;;;;3.70;3.10;;;15.90;60.60;;;;;;5053068;28;20021;-74
2023/05/01 11:01:46;;;;;;;5.40;3.90;;;16.10;59.90;;;;;;5062864;28;20075;-72
2023/05/01 11:04:21;;;;;;;4.43;4.03;;;16.40;59.20;;;;;;5059711;28;20020;-74
2023/05/01 11:07:04;;;;;;;4.07;3.47;;;16.40;58.50;;;;;;5072797;28;20508;-75
2023/05/01 11:09:56;;;;;;;6.00;4.03;;;16.40;58.10;;;;;;5072659;28;20105;-74
2023/05/01 11:12:50;;;;;;;4.13;3.30;;;16.40;58.50;;;;;;5072921;28;20020;-76
2023/05/01 11:15:31;;;;;;;6.25;4.32;;;16.30;58.80;;;;;;5072531;28;20554;-74
2023/05/01 11:17:58;;;;;;;4.32;3.83;;;16.30;59.10;;;;;;5072632;28;20013;-74
2023/05/01 11:20:23;;;;;;;4.32;3.80;;;16.20;57.70;;;;;;5071513;28;20107;-74
2023/05/01 11:22:54;;;;;;;4.82;3.47;;;16.00;57.40;;;;;;5068150;28;20434;-77
2023/05/01 11:25:29;;;;;;;4.68;3.80;;;15.80;57.80;;;;;;5068116;28;20440;-76
2023/05/01 11:28:00;;;;;;;5.72;4.32;;;15.50;58.10;;;;;;5066307;28;20028;-75
2023/05/01 11:30:35;;;;;;;6.68;3.72;;;15.40;59.30;;;;;;5069754;28;20473;-74
2023/05/01 11:33:00;;;;;;;4.35;3.95;;;15.30;60.40;;;;;;5072675;28;20029;-75
2023/05/01 11:35:27;;;;;;;6.35;3.65;;;15.30;61.50;;;;;;5072733;28;20024;-75
2023/05/01 11:37:55;;;;;;;4.22;3.33;;;15.10;60.50;;;;;;5072370;28;20049;-73
2023/05/01 11:40:27;;;;;;;3.80;3.33;;;14.80;61.70;;;;;;5072612;28;20063;-73
2023/05/01 11:43:03;;;;;;;3.75;3.03;;;14.50;62.50;;;;;;5072678;28;20451;-73
2023/05/01 11:45:30;;;;;;;5.85;3.40;;;14.40;63.20;;;;;;5072593;28;20072;-73
2023/05/01 11:47:56;;;;;;;6.22;3.47;;;14.30;62.80;;;;;;5072751;28;20024;-72
2023/05/01 11:50:21;;;;;;;4.63;3.47;;;14.40;62.50;;;;;;5065777;28;20028;-74
2023/05/01 11:52:54;;;;;;;3.92;3.20;;;14.50;62.50;;;;;;5065878;28;20017;-74
2023/05/01 11:55:33;;;;;;;3.92;3.20;;;14.60;61.50;;;;;;5063286;28;20373;-77
2023/05/01 11:57:59;;;;;;;3.63;3.33;;;14.80;61.60;;;;;;5070904;28;20028;-74
2023/05/01 12:00:30;;;;;;;3.28;2.88;;;14.90;60.50;;;;;;5072233;28;20040;-73
2023/05/01 12:02:58;;;;;;;4.38;3.20;;;15.00;60.00;;;;;;5072380;28;20021;-75
2023/05/01 12:05:25;;;;;;;3.47;3.17;;;15.00;58.40;;;;;;5072373;28;20567;-72
2023/05/01 12:08:04;;;;;;;5.07;2.95;;;14.90;58.50;;;;;;5071937;28;20035;-72
2023/05/01 12:10:29;;;;;;;5.90;3.13;;;15.10;58.60;;;;;;5071963;28;20033;-72
2023/05/01 12:12:55;;;;;;;3.13;2.60;;;15.30;57.70;;;;;;5072317;28;20070;-72
2023/05/01 12:15:21;;;;;;;3.42;2.85;;;15.40;55.50;;;;;;5072409;28;20488;-72
2023/05/01 12:17:47;;;;;;;4.25;2.70;;;15.60;53.40;;;;;;5072350;28;20043;-72
2023/05/01 12:20:12;;;;;;;2.85;2.33;;;15.70;52.90;;;;;;5054339;28;20073;-71
2023/05/01 12:22:49;;;;;;;2.90;2.65;;;15.90;53.00;;;;;;5072268;28;20086;-72
2023/05/01 12:25:15;;;;;;;4.22;2.92;;;16.10;52.80;;;;;;5072303;28;20075;-73
2023/05/01 12:27:44;;;;;;;2.53;2.33;;;16.30;52.60;;;;;;5072292;28;20361;-72
2023/05/01 12:30:10;;;;;;;3.95;2.38;;;16.50;51.20;;;;;;5072229;28;20100;-72
2023/05/01 12:32:36;;;;;;;3.67;2.58;;;16.40;51.00;;;;;;5075808;28;20017;-73
2023/05/01 12:35:14;;;;;;;2.83;2.03;;;16.40;50.90;;;;;;5075869;28;20031;-73
2023/05/01 12:37:40;;;;;;;4.03;2.72;;;16.30;50.70;;;;;;5076018;28;20044;-73
2023/05/01 12:40:14;;;;;;;4.55;2.72;;;16.20;51.10;;;;;;5075911;28;20047;-73
2023/05/01 12:42:41;;;;;;;2.77;2.30;;;16.10;51.60;;;;;;5075899;28;20032;-73
2023/05/01 12:45:13;;;;;;;5.75;3.92;;;16.20;50.80;;;;;;5075683;28;20477;-73
2023/05/01 12:47:39;;;;;;;3.75;2.25;;;16.40;50.30;;;;;;5075665;28;20078;-73
2023/05/01 12:50:06;;;;;;;2.70;2.50;;;16.50;50.40;;;;;;5075398;28;20519;-75